Home > Products > Valid Products > TAF

000
FTUS43 KDTX 240500
TAFDET
TAF
KDET 240520Z 2406/2506 VRB02KT P6SM BKN200
     FM241300 13010KT P6SM OVC120=



000
FTUS43 KDTX 240500
TAFDTW
TAF
KDTW 240520Z 2406/2512 VRB02KT P6SM BKN200
     FM241300 12010KT P6SM OVC120
     FM250600 10007KT P6SM BKN050 OVC100=



000
FTUS43 KDTX 240500
TAFFNT
TAF
KFNT 240520Z 2406/2506 VRB02KT P6SM BKN200
     FM241300 13010KT P6SM OVC120=



000
FTUS43 KDTX 240500
TAFMBS
TAF
KMBS 240520Z 2406/2506 VRB02KT P6SM BKN200
     FM241300 12012KT P6SM OVC120=



000
FTUS43 KDTX 240300 AAA
TAFDTW
TAF AMD
KDTW 240307Z 2403/2506 VRB02KT P6SM BKN200
     FM241300 12010KT P6SM OVC120=



000
FTUS43 KDTX 232300
TAFFNT
TAF
KFNT 232333Z 2400/2424 34010KT P6SM FEW250
     FM240100 VRB02KT P6SM BKN250
     FM241300 13010KT P6SM OVC120=



000
FTUS43 KDTX 232300
TAFDTW
TAF
KDTW 232333Z 2400/2506 36007KT P6SM SCT250
     FM240100 VRB02KT P6SM BKN250
     FM241300 12010KT P6SM OVC120=



000
FTUS43 KDTX 232300
TAFMBS
TAF
KMBS 232333Z 2400/2424 10009KT P6SM FEW250
     FM240100 VRB02KT P6SM BKN250
     FM241300 12012KT P6SM OVC120=



000
FTUS43 KDTX 232300
TAFDET
TAF
KDET 232333Z 2400/2424 01007KT P6SM SCT250
     FM240100 VRB02KT P6SM BKN250
     FM241300 13010KT P6SM OVC120=



000
FTUS43 KDTX 232100 AAB
TAFDTW
TAF AMD
KDTW 232103Z 2321/2424 36007KT P6SM SCT250
     FM240100 VRB02KT P6SM BKN250
     FM241300 12010KT P6SM OVC120=



000
FTUS43 KDTX 231900 AAA
TAFDTW
TAF AMD
KDTW 231939Z 2320/2424 35010G16KT P6SM FEW250
     FM232100 01007KT P6SM SCT250
     FM240100 VRB02KT P6SM BKN250
     FM241300 12010KT P6SM OVC120=



000
FTUS43 KDTX 231900 AAA
TAFDET
TAF AMD
KDET 231938Z 2320/2418 01010G15KT P6SM FEW250
     FM232200 01007KT P6SM SCT250
     FM240100 VRB02KT P6SM BKN250
     FM241300 13010KT P6SM OVC120=



000
FTUS43 KDTX 231700
TAFFNT
TAF
KFNT 231720Z 2318/2418 35010KT P6SM FEW250
     FM240100 VRB02KT P6SM BKN250
     FM241300 13010KT P6SM OVC120=



000
FTUS43 KDTX 231700
TAFMBS
TAF
KMBS 231720Z 2318/2418 03009KT P6SM FEW250
     FM240100 VRB02KT P6SM BKN250
     FM241300 12012KT P6SM OVC120=



000
FTUS43 KDTX 231700
TAFDET
TAF
KDET 231720Z 2318/2418 34010G15KT P6SM FEW030
     FM232200 36007KT P6SM SCT250
     FM240100 VRB02KT P6SM BKN250
     FM241300 13010KT P6SM OVC120=



000
FTUS43 KDTX 231700
TAFDTW
TAF
KDTW 231720Z 2318/2424 33010G16KT P6SM FEW030
     FM232100 35007KT P6SM SCT250
     FM240100 VRB02KT P6SM BKN250
     FM241300 12010KT P6SM OVC120=



000
FTUS43 KDTX 231500 AAB
TAFDET
TAF AMD
KDET 231508Z 2315/2412 34012KT P6SM BKN030
     FM231600 34010KT P6SM SCT025 SCT250
     FM240100 VRB02KT P6SM BKN250=



000
FTUS43 KDTX 231500 AAB
TAFDTW
TAF AMD
KDTW 231507Z 2315/2418 32011KT P6SM BKN025
     FM231600 33010KT P6SM SCT025 SCT250
     FM240100 VRB02KT P6SM BKN250=



000
FTUS43 KDTX 231300 AAA
TAFDET
TAF AMD
KDET 231353Z 2314/2412 34011KT P6SM BKN022
     FM231700 34010KT P6SM SCT025 SCT250
     FM240100 VRB02KT P6SM BKN250=



000
FTUS43 KDTX 231300 AAA
TAFDTW
TAF AMD
KDTW 231352Z 2314/2418 32012KT P6SM BKN020
     FM231700 33010KT P6SM SCT025 SCT250
     FM240100 VRB02KT P6SM BKN250=



000
FTUS43 KDTX 231100
TAFDET
TAF
KDET 231120Z 2312/2412 33013KT P6SM BKN025 OVC035
     FM231400 33010KT P6SM FEW035
     FM231700 36010KT P6SM SCT250
     FM240100 VRB02KT P6SM BKN250=



000
FTUS43 KDTX 231100
TAFDTW
TAF
KDTW 231120Z 2312/2418 32013KT P6SM BKN025 OVC035
     FM231400 33010KT P6SM FEW035
     FM231700 36010KT P6SM SCT250
     FM240100 VRB02KT P6SM BKN250=



000
FTUS43 KDTX 231100
TAFFNT
TAF
KFNT 231120Z 2312/2412 32011KT P6SM BKN022 OVC035
     FM231330 33010KT P6SM FEW030
     FM231600 36010KT P6SM SCT250
     FM240100 VRB02KT P6SM BKN250=



000
FTUS43 KDTX 231100
TAFMBS
TAF
KMBS 231120Z 2312/2412 33010KT P6SM SKC
     FM231600 36010KT P6SM SCT250
     FM240100 VRB02KT P6SM BKN250=



000
FTUS43 KDTX 231000 AAA
TAFFNT
TAF AMD
KFNT 231003Z 2310/2406 32010KT P6SM BKN025 OVC035
     FM231200 33010KT P6SM FEW035 FEW250
     FM231600 36010KT P6SM SCT250
     FM240100 VRB02KT P6SM BKN200=



000
FTUS43 KDTX 231000 AAA
TAFDET
TAF AMD
KDET 231001Z 2310/2406 32013KT P6SM BKN025 OVC035
     FM231300 33010KT P6SM FEW035 SCT250
     FM231800 36010KT P6SM BKN250
     FM240100 VRB02KT P6SM BKN200=



000
FTUS43 KDTX 230900 AAA
TAFDTW
TAF AMD
KDTW 230906Z 2309/2412 31008KT P6SM BKN025 OVC035
     FM231300 33010KT P6SM SCT250
     FM231900 36010KT P6SM BKN250
     FM240100 VRB02KT P6SM BKN200=



000
FTUS43 KDTX 230500
TAFMBS
TAF
KMBS 230520Z 2306/2406 31011KT P6SM SCT025 BKN045
     FM230900 33009KT P6SM FEW045 SCT250
     FM231800 36010KT P6SM BKN250
     FM240100 VRB02KT P6SM BKN200=



000
FTUS43 KDTX 230500
TAFFNT
TAF
KFNT 230520Z 2306/2406 31012KT P6SM BKN025 OVC035
     FM231000 33010KT P6SM SCT250
     FM231900 36010KT P6SM BKN250
     FM240100 VRB02KT P6SM BKN200=



000
FTUS43 KDTX 230500
TAFDET
TAF
KDET 230520Z 2306/2406 31013KT P6SM SCT025 BKN035
     FM231200 33010KT P6SM SCT250
     FM231900 36010KT P6SM BKN250
     FM240100 VRB02KT P6SM BKN200=



000
FTUS43 KDTX 230500
TAFDTW
TAF
KDTW 230520Z 2306/2412 30012KT P6SM SCT035 BKN045
     FM231300 33010KT P6SM SCT250
     FM231900 36010KT P6SM BKN250
     FM240100 VRB02KT P6SM BKN200=



000
FTUS43 KDTX 230300 AAA
TAFDTW
TAF AMD
KDTW 230301Z 2303/2406 30008KT P6SM BKN040
      TEMPO 2304/2308 BKN030
     FM230800 31013KT P6SM BKN030
     FM231300 33010KT P6SM SCT250
     FM231900 36010KT P6SM BKN250
     FM240100 VRB02KT P6SM BKN200=



000
FTUS43 KDTX 222300
TAFFNT
TAF
KFNT 222336Z 2300/2324 32015G25KT P6SM BKN035
      TEMPO 2300/2303 BKN030
     FM230300 31013KT P6SM BKN030
     FM231000 33010KT P6SM SCT250
     FM231900 36010KT P6SM BKN250=



000
FTUS43 KDTX 222300
TAFMBS
TAF
KMBS 222336Z 2300/2324 30015G25KT P6SM SCT030 BKN080
      TEMPO 2301/2303 BKN030
     FM230300 31013KT P6SM BKN030
     FM230800 33010KT P6SM SCT250
     FM231800 36010KT P6SM BKN250=



000
FTUS43 KDTX 222300
TAFDTW
TAF
KDTW 222336Z 2300/2406 30015G25KT P6SM BKN045
     FM230400 31013KT P6SM BKN030
     FM231300 33010KT P6SM SCT250
     FM231900 36010KT P6SM BKN250
     FM240100 VRB02KT P6SM BKN200=



000
FTUS43 KDTX 222300
TAFDET
TAF
KDET 222336Z 2300/2324 31015G25KT P6SM BKN045
     FM230400 31013KT P6SM BKN030
     FM231200 33010KT P6SM SCT250
     FM231900 36010KT P6SM BKN250=



000
FTUS43 KDTX 222000 AAA
TAFDTW
TAF AMD
KDTW 222053Z 2221/2324 30015G25KT P6SM BKN045
     FM230400 31013KT P6SM BKN030
     FM231300 33010KT P6SM SCT250
     FM231900 36010KT P6SM BKN250=



000
FTUS43 KDTX 221700
TAFMBS
TAF
KMBS 221727Z 2218/2318 30015G25KT P6SM BKN040
      TEMPO 2218/2220 BKN030
     FM230100 31013KT P6SM BKN030
     FM230800 33010KT P6SM SCT250=



000
FTUS43 KDTX 221700
TAFDET
TAF
KDET 221727Z 2218/2318 31015G25KT P6SM BKN040
      TEMPO 2218/2220 BKN030
     FM230400 31013KT P6SM BKN030
     FM231200 33010KT P6SM SCT250=



000
FTUS43 KDTX 221700
TAFFNT
TAF
KFNT 221727Z 2218/2318 32015G25KT P6SM BKN040
      TEMPO 2218/2220 BKN030
     FM230200 31013KT P6SM BKN030
     FM231000 33010KT P6SM SCT250=



000
FTUS43 KDTX 221700
TAFDTW
TAF
KDTW 221727Z 2218/2324 30015G25KT P6SM BKN040
      TEMPO 2218/2220 BKN030
     FM230400 31013KT P6SM BKN030
     FM231300 33010KT P6SM SCT250
     FM231900 36010KT P6SM BKN250=



000
FTUS43 KDTX 221500 AAB
TAFDET
TAF AMD
KDET 221531Z 2216/2312 32013G20KT P6SM BKN030
     FM221900 32015G25KT P6SM BKN045
     FM230000 30012KT P6SM SCT050
     FM230900 30009KT P6SM SKC=



000
FTUS43 KDTX 221500 AAB
TAFFNT
TAF AMD
KFNT 221527Z 2215/2312 32015G25KT P6SM BKN030
     FM221900 32015G25KT P6SM BKN045
     FM230000 30012KT P6SM SCT050
     FM230800 30008KT P6SM SKC=



000
FTUS43 KDTX 221500 AAB
TAFMBS
TAF AMD
KMBS 221526Z 2215/2312 31015G25KT P6SM BKN030
     FM221900 31015G25KT P6SM BKN045
     FM230000 30012KT P6SM SCT050
     FM230700 30008KT P6SM SKC=



000
FTUS43 KDTX 221400 AAB
TAFDTW
TAF AMD
KDTW 221403Z 2214/2318 30013G23KT P6SM SCT025
     FM221500 30013G23KT P6SM BKN030
     FM221800 30017G26KT P6SM BKN045
     FM230000 31012KT P6SM SCT050
     FM230900 32009KT P6SM SKC=



000
FTUS43 KDTX 221300 AAA
TAFDTW
TAF AMD
KDTW 221312Z 2213/2318 31013G20KT P6SM SCT025
     FM221400 31014G22KT P6SM BKN030
     FM221700 30017G26KT P6SM BKN050
     FM230000 31012KT P6SM SCT050
     FM230900 32009KT P6SM SKC=



000
FTUS43 KDTX 221300 AAA
TAFDET
TAF AMD
KDET 221309Z 2213/2312 33013G20KT P6SM OVC015
     FM221400 33014G22KT P6SM BKN030
     FM221700 32017G26KT P6SM BKN045
     FM230000 32012KT P6SM SCT050
     FM230900 32009KT P6SM SKC=



000
FTUS43 KDTX 221300 AAA
TAFFNT
TAF AMD
KFNT 221305Z 2213/2312 32013G20KT P6SM SCT025 SCT050
     FM221400 32014G22KT P6SM BKN030
     FM221700 32017G26KT P6SM BKN045
     FM230000 32012KT P6SM SCT050
     FM230800 31008KT P6SM SKC=



000
FTUS43 KDTX 221300 AAA
TAFMBS
TAF AMD
KMBS 221303Z 2213/2312 32014G22KT P6SM BKN030
     FM221700 32018G26KT P6SM BKN045
     FM230000 32012KT P6SM SCT050
     FM230700 30008KT P6SM SKC=



000
FTUS43 KDTX 221100
TAFFNT
TAF
KFNT 221120Z 2212/2312 32012G18KT P6SM SCT015 BKN035
     FM221300 32014G22KT P6SM BKN040
     FM221900 32017G26KT P6SM BKN050
     FM230000 32012KT P6SM SCT050
     FM230800 31008KT P6SM SKC=



000
FTUS43 KDTX 221100
TAFDET
TAF
KDET 221120Z 2212/2312 32012G18KT P6SM SCT015 BKN035
     FM221400 32014G22KT P6SM BKN040
     FM221900 32017G26KT P6SM BKN050
     FM230000 32012KT P6SM SCT050
     FM230900 32009KT P6SM SKC=



000
FTUS43 KDTX 221100
TAFDTW
TAF
KDTW 221120Z 2212/2318 32012G18KT P6SM SCT015 BKN035
     FM221400 32014G22KT P6SM BKN040
     FM221900 32017G26KT P6SM BKN050
     FM230000 32012KT P6SM SCT050
     FM230900 32009KT P6SM SKC=



000
FTUS43 KDTX 221100
TAFMBS
TAF
KMBS 221120Z 2212/2312 32014G22KT P6SM BKN045
     FM221900 32018G26KT P6SM BKN050
     FM230000 32012KT P6SM SCT050
     FM230700 30008KT P6SM SKC=



000
FTUS43 KDTX 221000 AAA
TAFFNT
TAF AMD
KFNT 221001Z 2210/2306 33012G18KT P6SM SCT008 BKN015 OVC025
     FM221300 32013G20KT P6SM BKN040
     FM221900 32017G26KT P6SM BKN050
     FM230000 32012KT P6SM SCT050=



000
FTUS43 KDTX 221000 AAB
TAFDET
TAF AMD
KDET 221000Z 2210/2306 29010KT P6SM BKN015 OVC025
     FM221200 32012KT P6SM SCT025 BKN035
     FM221400 32013G20KT P6SM BKN040
     FM221900 32017G26KT P6SM BKN050
     FM230000 32012KT P6SM SCT050=



000
FTUS43 KDTX 220800 AAB
TAFDTW
TAF AMD
KDTW 220825Z 2208/2312 24011KT P6SM -SHRA SCT008 OVC015
      TEMPO 2209/2210 5SM -SHRA BR OVC008
     FM221030 32012KT P6SM SCT030 BKN100
     FM221400 32013G20KT P6SM BKN040
     FM221900 32017G26KT P6SM BKN050
     FM230000 32012KT P6SM SCT050=



000
FTUS43 KDTX 220700 AAA
TAFDET
TAF AMD
KDET 220722Z 2207/2306 24011KT 6SM -SHRA BKN025 OVC060
      TEMPO 2208/2210 4SM -SHRA BR BKN015 OVC050
     FM221000 32012KT P6SM SCT030 BKN100
     FM221400 32013G20KT P6SM BKN040
     FM221900 32017G26KT P6SM BKN050
     FM230000 32012KT P6SM SCT050=



000
FTUS43 KDTX 220700 AAA
TAFDTW
TAF AMD
KDTW 220721Z 2207/2312 24011KT 6SM -SHRA SCT015 BKN025
      TEMPO 2208/2210 4SM -SHRA BR SCT007 OVC015
     FM221000 32012KT P6SM SCT030 BKN100
     FM221400 32013G20KT P6SM BKN040
     FM221900 32017G26KT P6SM BKN050
     FM230000 32012KT P6SM SCT050=



000
FTUS43 KDTX 220500
TAFMBS
TAF
KMBS 220520Z 2206/2306 28010KT 5SM -SHRA BR SCT008 BKN018 OVC070
     FM220700 32010KT P6SM SCT025 BKN100
     FM221400 32014G22KT P6SM BKN040
     FM221900 32017G26KT P6SM BKN050
     FM230000 32012KT P6SM SCT050=



000
FTUS43 KDTX 220500
TAFFNT
TAF
KFNT 220520Z 2206/2306 28008KT 5SM -SHRA BR SCT008 BKN018 OVC060
      TEMPO 2206/2208 3SM -SHRA BR BKN008 OVC015
     FM220900 32010KT P6SM SCT030 BKN100
     FM221400 32013G20KT P6SM BKN040
     FM221900 32017G26KT P6SM BKN050
     FM230000 32012KT P6SM SCT050=



000
FTUS43 KDTX 220500
TAFDTW
TAF
KDTW 220520Z 2206/2312 25010KT 6SM -SHRA SCT040 OVC060
      TEMPO 2208/2210 4SM -SHRA BR BKN015 OVC060
     FM221000 32012KT P6SM SCT030 BKN100
     FM221400 32013G20KT P6SM BKN040
     FM221900 32017G26KT P6SM BKN050
     FM230000 32012KT P6SM SCT050=



000
FTUS43 KDTX 220500
TAFDET
TAF
KDET 220520Z 2206/2306 25010KT 6SM -SHRA SCT040 OVC060
      TEMPO 2208/2210 4SM -SHRA BR BKN015 OVC060
     FM221000 32012KT P6SM SCT030 BKN100
     FM221400 32013G20KT P6SM BKN040
     FM221900 32017G26KT P6SM BKN050
     FM230000 32012KT P6SM SCT050=



000
FTUS43 KDTX 220300 AAB
TAFDTW
TAF AMD
KDTW 220305Z 2203/2306 26012G18KT 6SM -SHRA SCT040 OVC060
     FM220700 28008KT 4SM -SHRA BR BKN015 OVC060
     FM221000 32012KT P6SM BKN030
     FM221400 32013G20KT P6SM BKN040
     FM221900 32017G26KT P6SM BKN050
     FM230000 32012KT P6SM SCT050=



000
FTUS43 KDTX 220100 AAA
TAFDTW
TAF AMD
KDTW 220144Z 2202/2306 25010KT 6SM -SHRA SCT040 OVC080
      TEMPO 2202/2203 25012G22KT 6SM -SHRA SCT040 OVC080
     FM220700 28008KT 3SM -SHRA BR OVC015
     FM221000 32012KT P6SM BKN030
     FM221400 32013G20KT P6SM BKN040
     FM221900 32017G26KT P6SM BKN050
     FM230000 32012KT P6SM SCT050=



000
FTUS43 KDTX 212300
TAFDET
TAF
KDET 212320Z 2200/2224 23012KT P6SM SCT100 BKN200
     FM220200 25008KT 6SM -SHRA SCT040 OVC080
     FM220700 28008KT 3SM -SHRA BR OVC015
     FM221000 32010KT P6SM BKN030
     FM221400 32013G20KT P6SM BKN040
     FM221900 32017G26KT P6SM BKN050=



000
FTUS43 KDTX 212300
TAFDTW
TAF
KDTW 212320Z 2200/2306 20010KT P6SM SCT100 BKN200
     FM220200 25008KT 6SM -SHRA SCT040 OVC080
     FM220700 28008KT 3SM -SHRA BR OVC015
     FM221000 32012KT P6SM BKN030
     FM221400 32013G20KT P6SM BKN040
     FM221900 32017G26KT P6SM BKN050
     FM230000 32012KT P6SM SCT050=



000
FTUS43 KDTX 212300
TAFFNT
TAF
KFNT 212320Z 2200/2224 25008KT 6SM -SHRA SCT040 OVC080
     FM220500 28008KT 3SM -SHRA BR OVC015
     FM220800 32010KT P6SM BKN030
     FM221400 32013G20KT P6SM BKN040
     FM221900 32017G26KT P6SM BKN050=



000
FTUS43 KDTX 212300
TAFMBS
TAF
KMBS 212320Z 2200/2224 28012KT 6SM -SHRA SCT040 OVC080
     FM220500 28010KT 3SM -SHRA BR OVC015
     FM220700 32010KT P6SM BKN030
     FM221400 32014G22KT P6SM BKN040
     FM221900 32017G26KT P6SM BKN050=



000
FTUS43 KDTX 212100 AAA
TAFDTW
TAF AMD
KDTW 212105Z 2121/2224 20010KT P6SM SCT100 BKN200
     FM220200 25008KT 6SM -SHRA SCT040 OVC080
     FM220700 28008KT 3SM -SHRA BR OVC015
     FM221000 32012KT P6SM BKN030
     FM221400 32013G20KT P6SM BKN040
     FM221900 32015G25KT P6SM BKN050=



000
FTUS43 KDTX 211700
TAFMBS
TAF
KMBS 211723Z 2118/2218 23012KT P6SM SCT080 BKN120
     FM212200 25008KT 6SM -SHRA SCT040 OVC080
     FM220300 28008KT 3SM -SHRA BR OVC015
     FM220700 32010KT P6SM BKN030
     FM221400 32013G20KT P6SM BKN040=



000
FTUS43 KDTX 211700
TAFFNT
TAF
KFNT 211723Z 2118/2218 23012KT P6SM SCT080 BKN150
     FM220000 25008KT 6SM -SHRA SCT040 OVC080
     FM220500 28008KT 3SM -SHRA BR OVC015
     FM220800 32010KT P6SM BKN030
     FM221400 32013G20KT P6SM BKN040=



000
FTUS43 KDTX 211700
TAFDET
TAF
KDET 211723Z 2118/2218 23012KT P6SM SCT100 BKN200
     FM220200 25008KT 6SM -SHRA SCT040 OVC080
     FM220700 28008KT 3SM -SHRA BR OVC015
     FM221000 32010KT P6SM BKN030
     FM221400 32013G20KT P6SM BKN040=



000
FTUS43 KDTX 211700
TAFDTW
TAF
KDTW 211723Z 2118/2224 20010KT P6SM SCT100 BKN200
     FM220100 25008KT 6SM -SHRA SCT040 OVC080
     FM220700 28008KT 3SM -SHRA BR OVC015
     FM221000 32012KT P6SM BKN030
     FM221400 32013G20KT P6SM BKN040
     FM221900 32015G25KT P6SM BKN050=



000
FTUS43 KDTX 211500 AAA
TAFDTW
TAF AMD
KDTW 211504Z 2115/2218 17005KT P6SM SCT150 BKN250
     FM211700 21009KT P6SM OVC150
     FM220300 25008KT P6SM -SHRA SCT050 BKN070
     FM220800 29011KT 3SM -SHRA BKN025 OVC040
     FM221000 30013KT P6SM SCT040 BKN080
     FM221300 31017G23KT P6SM SCT080=



000
FTUS43 KDTX 211100
TAFDTW
TAF
KDTW 211120Z 2112/2218 VRB03KT P6SM SCT150 BKN250
     FM211500 21009KT P6SM BKN150
     FM220300 25008KT P6SM -SHRA SCT050 BKN070
     FM220800 29011KT 3SM -SHRA BKN025 OVC040
     FM221000 30013KT P6SM SCT040 BKN080
     FM221300 31017G23KT P6SM SCT080=



000
FTUS43 KDTX 211100
TAFFNT
TAF
KFNT 211120Z 2112/2212 19006KT P6SM SCT150 BKN250
     FM211400 21009KT P6SM BKN150
     FM220200 25008KT P6SM -SHRA SCT050 BKN070
     FM220700 29012KT 4SM -SHRA BKN025 OVC040
     FM220900 30014KT P6SM SCT040 BKN080=



000
FTUS43 KDTX 211100
TAFMBS
TAF
KMBS 211120Z 2112/2212 20006KT P6SM BKN120
     FM211500 23010KT P6SM BKN150
     FM212200 23008KT P6SM -SHRA BKN060 OVC100
     FM220200 26008KT 4SM -SHRA BKN025 OVC050
     FM220600 30012KT P6SM -SHRA SCT050 BKN100=



000
FTUS43 KDTX 211100
TAFDET
TAF
KDET 211120Z 2112/2212 VRB03KT P6SM SCT150 BKN250
     FM211500 21009KT P6SM BKN150
     FM220400 25008KT P6SM -SHRA SCT050 BKN070
     FM220800 29011KT 3SM -SHRA BKN025 OVC040
     FM221000 30013KT P6SM SCT040 BKN080=



000
FTUS43 KDTX 210800 AAA
TAFDTW
TAF AMD
KDTW 210831Z 2109/2212 VRB03KT P6SM SCT150 BKN250
     FM211500 21009KT P6SM BKN150
     FM220300 25008KT P6SM -SHRA SCT050 BKN070
     FM220700 29011KT 3SM -SHRA BKN025 OVC040
     FM221000 30013KT P6SM SCT040 BKN080=



    US Dept of Commerce
    National Oceanic and Atmospheric Administration
    National Weather Service
    1325 East West Highway
    Silver Spring, MD 20910
    Page Author: NWS Internet Services Team
Disclaimer
Information Quality
Credits
Glossary
Privacy Policy
Freedom of Information Act (FOIA)
About Us
Career Opportunities